LGKC

Kithira Airport

Kithira Island, Greece
TAF LGKC 242300Z 2500/2509 28015KT 9999 FEW016 BECMG 2504/2506 04015KT BECMG 2507/2509 04025KT
Issued Valid From Valid To
Sep-24 @ 23:00 UTC
(an hour ago)
Sep-25 @ 00:00 UTC
(9 minutes ago)
Sep-25 @ 09:00 UTC
(in 9 hours)
Sep-25 @ 00:00 to Sep-25 @ 04:00
TAF LGKC 242300Z 2500/2509 28015KT 9999 FEW016
Wind Visibility Clouds
280° at 15 knots 10,000+ meters
  • Few at 1,600' AGL
Becoming Sep-25 @ 04:00 to Sep-25 @ 07:00
BECMG 2504/2506 04015KT
Wind Visibility Clouds
40° at 15 knots 10,000+ meters
  • Few at 1,600' AGL
Becoming Sep-25 @ 07:00 to Sep-25 @ 09:00
BECMG 2507/2509 04025KT
Wind Visibility Clouds
40° at 25 knots 10,000+ meters
  • Few at 1,600' AGL
TAF LGKC 242300Z 2500/2509 28015KT 9999 FEW016 BECMG 2504/2506 04015KT BECMG 2507/2509 04025KT
Issued Sep-24 @ 23:00 UTC
(an hour ago)
Valid From Sep-25 @ 00:00 UTC
(9 minutes ago)
Valid To Sep-25 @ 09:00 UTC
(in 9 hours)
Sep-25 @ 00:00 - Sep-25 @ 04:00
Wind Visibility
280° at 15 knots 10,000+ meters
Clouds
  • Few at 1,600' AGL
Becoming Sep-25 @ 04:00 - Sep-25 @ 07:00
Wind Visibility
40° at 15 knots 10,000+ meters
Clouds
  • Few at 1,600' AGL
Becoming Sep-25 @ 07:00 - Sep-25 @ 09:00
Wind Visibility
40° at 25 knots 10,000+ meters
Clouds
  • Few at 1,600' AGL